Time;durP1;ratioP1;P1;durP2;ratioP2;P2;SDS_P1;SDS_P2;PMS_P1;PMS_P2;Temp;Humidity;BMP_temperature;BMP_pressure;BME280_temperature;BME280_humidity;BME280_pressure;Samples;Min_cycle;Max_cycle;Signal;HPM_P1;HPM_P2
2024/02/07 00:01:31;;;;;;;4.55;1.38;;;;;;;;;;6120556;23;20109;-75
2024/02/07 00:03:59;;;;;;;3.75;1.52;;;;;;;;;;6122213;23;20013;-75
2024/02/07 00:06:25;;;;;;;3.72;1.20;;;;;;;;;;6119258;23;20044;-71
2024/02/07 00:08:51;;;;;;;5.90;1.70;;;;;;;;;;6119123;23;20037;-75
2024/02/07 00:11:17;;;;;;;3.78;1.33;;;;;;;;;;6119206;23;20010;-76
2024/02/07 00:13:43;;;;;;;1.65;1.48;;;;;;;;;;6122776;23;20419;-75
2024/02/07 00:16:12;;;;;;;5.90;1.63;;;;;;;;;;6124195;23;20422;-74
2024/02/07 00:18:37;;;;;;;4.75;1.17;;;;;;;;;;6122011;23;20076;-73
2024/02/07 00:21:04;;;;;;;3.40;1.45;;;;;;;;;;6123892;23;20049;-73
2024/02/07 00:23:32;;;;;;;2.88;1.25;;;;;;;;;;6124446;23;20010;-77
2024/02/07 00:25:58;;;;;;;1.55;1.13;;;;;;;;;;6125503;23;20002;-75
2024/02/07 00:28:23;;;;;;;5.93;1.60;;;;;;;;;;6125502;23;20084;-75
2024/02/07 00:30:49;;;;;;;2.70;1.40;;;;;;;;;;6122689;23;20121;-75
2024/02/07 00:33:15;;;;;;;5.32;2.33;;;;;;;;;;6122561;23;20368;-73
2024/02/07 00:35:41;;;;;;;2.95;1.52;;;;;;;;;;6123602;23;20082;-72
2024/02/07 00:38:07;;;;;;;2.92;1.25;;;;;;;;;;6124116;23;20022;-75
2024/02/07 00:40:33;;;;;;;5.78;1.52;;;;;;;;;;6122482;23;20017;-75
2024/02/07 00:42:58;;;;;;;3.42;1.63;;;;;;;;;;6124236;23;20428;-74
2024/02/07 00:45:24;;;;;;;4.63;1.52;;;;;;;;;;6123557;23;20335;-75
2024/02/07 00:47:49;;;;;;;3.15;1.48;;;;;;;;;;6122411;23;20024;-74
2024/02/07 00:50:15;;;;;;;2.92;1.50;;;;;;;;;;6123683;23;20033;-75
2024/02/07 00:52:43;;;;;;;1.30;1.05;;;;;;;;;;6122295;23;20606;-73
2024/02/07 00:55:10;;;;;;;3.42;1.40;;;;;;;;;;6122689;23;20002;-73
2024/02/07 00:57:36;;;;;;;4.32;1.42;;;;;;;;;;6124017;23;20021;-74
2024/02/07 01:00:02;;;;;;;4.90;1.65;;;;;;;;;;6122457;23;20010;-71
2024/02/07 01:02:27;;;;;;;4.20;1.63;;;;;;;;;;6124220;23;20041;-73
2024/02/07 01:04:53;;;;;;;2.72;1.05;;;;;;;;;;6122725;23;20446;-74
2024/02/07 01:07:19;;;;;;;3.08;1.60;;;;;;;;;;6123168;23;20021;-75
2024/02/07 01:09:44;;;;;;;2.15;1.50;;;;;;;;;;6124141;23;20061;-75
2024/02/07 01:12:10;;;;;;;3.38;1.30;;;;;;;;;;6123999;23;20005;-73
2024/02/07 01:14:35;;;;;;;5.40;1.40;;;;;;;;;;6124803;23;20009;-74
2024/02/07 01:17:01;;;;;;;3.35;1.45;;;;;;;;;;6124682;23;20001;-75
2024/02/07 01:19:28;;;;;;;6.18;2.20;;;;;;;;;;6122496;23;20010;-77
2024/02/07 01:21:53;;;;;;;6.30;1.70;;;;;;;;;;6125882;23;20081;-76
2024/02/07 01:24:19;;;;;;;6.50;1.85;;;;;;;;;;6124367;23;20056;-74
2024/02/07 01:26:45;;;;;;;4.65;2.00;;;;;;;;;;6122126;23;20069;-75
2024/02/07 01:29:10;;;;;;;1.85;1.35;;;;;;;;;;6098594;23;20127;-73
2024/02/07 01:31:36;;;;;;;7.88;1.80;;;;;;;;;;6122436;23;20132;-74
2024/02/07 01:34:01;;;;;;;4.10;1.40;;;;;;;;;;6123025;23;20008;-74
2024/02/07 01:36:27;;;;;;;2.90;1.38;;;;;;;;;;6123531;23;20002;-73
2024/02/07 01:38:54;;;;;;;3.65;1.38;;;;;;;;;;6122172;23;20097;-72
2024/02/07 01:41:21;;;;;;;2.28;1.58;;;;;;;;;;6121959;23;20006;-75
2024/02/07 01:43:47;;;;;;;2.85;1.27;;;;;;;;;;6123906;23;20427;-75
2024/02/07 01:46:13;;;;;;;5.20;1.48;;;;;;;;;;6122313;23;20010;-74
2024/02/07 01:48:42;;;;;;;2.22;1.55;;;;;;;;;;6123104;23;20446;-73
2024/02/07 01:51:08;;;;;;;4.50;1.70;;;;;;;;;;6121762;23;20006;-75
2024/02/07 01:53:34;;;;;;;5.28;1.83;;;;;;;;;;6123298;23;20005;-75
2024/02/07 01:56:00;;;;;;;5.55;1.60;;;;;;;;;;6123529;23;20419;-75
2024/02/07 01:58:29;;;;;;;3.42;1.55;;;;;;;;;;6121748;23;20431;-75
2024/02/07 02:00:57;;;;;;;4.05;1.80;;;;;;;;;;6123600;23;20006;-75
2024/02/07 02:03:23;;;;;;;4.80;1.70;;;;;;;;;;6122310;23;20438;-73
2024/02/07 02:05:49;;;;;;;4.40;1.70;;;;;;;;;;6126091;23;20029;-74
2024/02/07 02:08:15;;;;;;;5.78;1.80;;;;;;;;;;6102631;23;20006;-73
2024/02/07 02:10:40;;;;;;;5.15;1.40;;;;;;;;;;6126355;23;20443;-75
2024/02/07 02:13:06;;;;;;;4.75;1.88;;;;;;;;;;6152623;23;20009;-73
2024/02/07 02:15:32;;;;;;;4.63;1.60;;;;;;;;;;6152596;23;20044;-76
2024/02/07 02:17:57;;;;;;;2.42;1.65;;;;;;;;;;6128173;23;20009;-75
2024/02/07 02:20:24;;;;;;;4.55;1.75;;;;;;;;;;6157711;23;20029;-73
2024/02/07 02:23:16;;;;;;;1.80;1.20;;;;;;;;;;6127073;23;20475;-73
2024/02/07 02:26:12;;;;;;;3.50;1.73;;;;;;;;;;6126978;23;20024;-74
2024/02/07 02:29:04;;;;;;;2.67;1.70;;;;;;;;;;6126289;23;20019;-76
2024/02/07 02:31:31;;;;;;;3.13;1.27;;;;;;;;;;6150888;23;20009;-76
2024/02/07 02:33:58;;;;;;;4.47;1.30;;;;;;;;;;6152300;23;20015;-75
2024/02/07 02:36:24;;;;;;;8.77;1.85;;;;;;;;;;6126963;23;20312;-75
2024/02/07 02:38:52;;;;;;;2.03;1.52;;;;;;;;;;6102307;23;20017;-72
2024/02/07 02:41:23;;;;;;;1.95;1.30;;;;;;;;;;6153341;23;20016;-75
2024/02/07 02:43:49;;;;;;;3.22;1.70;;;;;;;;;;6133335;23;20033;-73
2024/02/07 02:46:14;;;;;;;2.03;1.60;;;;;;;;;;6130460;23;20426;-74
2024/02/07 02:48:41;;;;;;;3.13;1.85;;;;;;;;;;6161813;23;20418;-71
2024/02/07 02:51:07;;;;;;;4.63;1.60;;;;;;;;;;6167774;23;20035;-73
2024/02/07 02:53:32;;;;;;;3.65;1.42;;;;;;;;;;6135301;23;20044;-76
2024/02/07 02:55:58;;;;;;;3.22;1.85;;;;;;;;;;6153267;23;20383;-75
2024/02/07 02:58:29;;;;;;;4.47;1.92;;;;;;;;;;6126355;23;20121;-75
2024/02/07 03:00:56;;;;;;;6.78;1.80;;;;;;;;;;6104059;23;20017;-75
2024/02/07 03:03:23;;;;;;;3.42;1.20;;;;;;;;;;6153619;23;20525;-75
2024/02/07 03:05:58;;;;;;;5.75;1.83;;;;;;;;;;6077741;23;20041;-74
2024/02/07 03:08:40;;;;;;;2.60;1.48;;;;;;;;;;6152042;23;20005;-74
2024/02/07 03:11:09;;;;;;;2.50;1.45;;;;;;;;;;6125660;23;20016;-74
2024/02/07 03:13:35;;;;;;;3.03;1.52;;;;;;;;;;6125589;23;20005;-74
2024/02/07 03:16:05;;;;;;;5.70;2.20;;;;;;;;;;6125927;23;20005;-73
2024/02/07 03:18:35;;;;;;;3.83;1.60;;;;;;;;;;6152796;23;20005;-73
2024/02/07 03:21:06;;;;;;;7.25;2.22;;;;;;;;;;6152316;23;20052;-74
2024/02/07 03:23:33;;;;;;;3.83;1.40;;;;;;;;;;6125373;23;20013;-74
2024/02/07 03:26:00;;;;;;;8.48;2.65;;;;;;;;;;6125554;23;20056;-75
2024/02/07 03:28:31;;;;;;;3.47;1.40;;;;;;;;;;6125581;23;20012;-74
2024/02/07 03:30:56;;;;;;;3.50;1.45;;;;;;;;;;6126489;23;20033;-74
2024/02/07 03:33:22;;;;;;;8.48;2.15;;;;;;;;;;6126164;23;20335;-75
2024/02/07 03:35:48;;;;;;;1.67;1.48;;;;;;;;;;6125999;23;20061;-75
2024/02/07 03:38:13;;;;;;;7.38;1.88;;;;;;;;;;6152207;23;19998;-75
2024/02/07 03:40:39;;;;;;;4.10;1.58;;;;;;;;;;6125829;23;20006;-73
2024/02/07 03:43:06;;;;;;;3.00;1.67;;;;;;;;;;6126240;23;20438;-74
2024/02/07 03:45:32;;;;;;;2.78;1.05;;;;;;;;;;6151850;23;20080;-75
2024/02/07 03:47:58;;;;;;;5.40;1.50;;;;;;;;;;6127602;23;20350;-74
2024/02/07 03:50:27;;;;;;;5.90;1.75;;;;;;;;;;6154184;23;20008;-75
2024/02/07 03:52:55;;;;;;;2.58;1.50;;;;;;;;;;6128483;23;20063;-74
2024/02/07 03:55:20;;;;;;;6.47;1.33;;;;;;;;;;6127854;23;20422;-72
2024/02/07 03:57:48;;;;;;;4.53;1.50;;;;;;;;;;6153813;23;20005;-73
2024/02/07 04:00:15;;;;;;;1.73;1.35;;;;;;;;;;6154617;23;20005;-73
2024/02/07 04:02:43;;;;;;;3.85;1.98;;;;;;;;;;6127163;23;20439;-74
2024/02/07 04:05:09;;;;;;;3.80;1.50;;;;;;;;;;6127897;23;19997;-74
2024/02/07 04:07:35;;;;;;;4.18;1.52;;;;;;;;;;6154014;23;20076;-76
2024/02/07 04:10:03;;;;;;;2.88;1.25;;;;;;;;;;6154998;23;20025;-76
2024/02/07 05:17:21;;;;;;;7.70;1.83;;;;;;;;;;6153200;23;20434;-73
2024/02/07 05:19:48;;;;;;;6.00;1.77;;;;;;;;;;6151275;23;20084;-75
2024/02/07 05:22:16;;;;;;;4.90;1.77;;;;;;;;;;6126975;23;20002;-76
2024/02/07 05:24:46;;;;;;;4.47;1.60;;;;;;;;;;6153326;23;20009;-76
2024/02/07 05:27:15;;;;;;;5.75;1.60;;;;;;;;;;6127404;23;20001;-77
2024/02/07 05:29:42;;;;;;;2.60;1.42;;;;;;;;;;6153194;23;20002;-74
2024/02/07 05:32:08;;;;;;;6.25;1.50;;;;;;;;;;6126998;23;20065;-73
2024/02/07 05:34:35;;;;;;;5.07;2.08;;;;;;;;;;6153501;23;20005;-74
2024/02/07 05:37:01;;;;;;;4.85;1.80;;;;;;;;;;6127383;23;20073;-74
2024/02/07 05:39:27;;;;;;;4.32;2.10;;;;;;;;;;6153219;23;19997;-75
2024/02/07 05:41:53;;;;;;;2.58;1.30;;;;;;;;;;6126215;23;20016;-76
2024/02/07 05:44:18;;;;;;;16.83;1.98;;;;;;;;;;6152941;23;20009;-74
2024/02/07 05:46:44;;;;;;;3.55;1.60;;;;;;;;;;6152848;23;20010;-75
2024/02/07 05:49:13;;;;;;;3.97;1.70;;;;;;;;;;6153969;23;20430;-74
2024/02/07 05:51:40;;;;;;;6.22;1.70;;;;;;;;;;6153966;23;20008;-74
2024/02/07 05:54:09;;;;;;;9.02;2.03;;;;;;;;;;6154375;23;20002;-73
2024/02/07 05:56:35;;;;;;;6.13;1.92;;;;;;;;;;6127676;23;20082;-75
2024/02/07 05:59:01;;;;;;;2.55;1.65;;;;;;;;;;6126529;23;20056;-75
2024/02/07 06:01:27;;;;;;;5.78;2.50;;;;;;;;;;6152702;23;20010;-74
2024/02/07 06:03:53;;;;;;;4.20;2.00;;;;;;;;;;6126405;23;20037;-73
2024/02/07 06:06:19;;;;;;;6.70;1.70;;;;;;;;;;6126744;23;20430;-74
2024/02/07 06:08:49;;;;;;;2.75;1.42;;;;;;;;;;6126385;23;20069;-73
2024/02/07 06:11:15;;;;;;;2.90;1.55;;;;;;;;;;6125711;23;20010;-74
2024/02/07 06:13:41;;;;;;;3.03;1.40;;;;;;;;;;6121776;23;20033;-74
2024/02/07 06:16:07;;;;;;;3.63;1.50;;;;;;;;;;6152080;23;19997;-74
2024/02/07 06:18:35;;;;;;;4.88;1.70;;;;;;;;;;6125790;23;20383;-77
2024/02/07 06:21:01;;;;;;;2.85;1.40;;;;;;;;;;6152088;23;20447;-73
2024/02/07 06:23:27;;;;;;;3.65;1.65;;;;;;;;;;6120975;23;20402;-75
2024/02/07 06:25:52;;;;;;;7.90;2.10;;;;;;;;;;6152688;23;20028;-76
2024/02/07 06:28:17;;;;;;;5.00;2.08;;;;;;;;;;6127309;23;20009;-76
2024/02/07 06:30:44;;;;;;;3.90;1.60;;;;;;;;;;6125968;23;20334;-75
2024/02/07 06:33:09;;;;;;;6.05;2.03;;;;;;;;;;6126497;23;20032;-75
2024/02/07 06:35:35;;;;;;;6.15;1.65;;;;;;;;;;6153187;23;20001;-74
2024/02/07 06:38:01;;;;;;;4.45;1.73;;;;;;;;;;6126051;23;20009;-74
2024/02/07 06:40:28;;;;;;;8.38;1.95;;;;;;;;;;6153454;23;20005;-73
2024/02/07 06:42:53;;;;;;;5.97;1.75;;;;;;;;;;6125687;23;20446;-75
2024/02/07 06:45:19;;;;;;;6.40;1.73;;;;;;;;;;6151758;23;20008;-73
2024/02/07 06:47:46;;;;;;;4.13;1.63;;;;;;;;;;6152571;23;20021;-75
2024/02/07 06:50:11;;;;;;;5.53;2.78;;;;;;;;;;6099835;23;20040;-76
2024/02/07 06:52:39;;;;;;;3.78;1.65;;;;;;;;;;6125937;23;20013;-74
2024/02/07 06:55:05;;;;;;;2.00;1.48;;;;;;;;;;6127602;23;20013;-78
2024/02/07 06:57:30;;;;;;;4.68;1.90;;;;;;;;;;6169198;23;20028;-73
2024/02/07 06:59:56;;;;;;;3.65;1.50;;;;;;;;;;6142833;23;20013;-72
2024/02/07 07:02:21;;;;;;;1.90;1.70;;;;;;;;;;6155397;23;20006;-73
2024/02/07 07:04:48;;;;;;;3.40;1.98;;;;;;;;;;6150480;23;20005;-75
2024/02/07 07:07:16;;;;;;;6.22;1.67;;;;;;;;;;6150934;23;20029;-70
2024/02/07 07:09:42;;;;;;;3.75;1.95;;;;;;;;;;6150456;23;20009;-69
2024/02/07 07:12:07;;;;;;;4.13;1.50;;;;;;;;;;6124657;23;20485;-70
2024/02/07 07:14:37;;;;;;;3.38;1.95;;;;;;;;;;6123747;23;20013;-71
2024/02/07 07:17:03;;;;;;;5.03;1.55;;;;;;;;;;6149944;23;20335;-71
2024/02/07 07:19:28;;;;;;;6.63;1.92;;;;;;;;;;6150138;23;20005;-70
2024/02/07 07:21:55;;;;;;;6.28;2.22;;;;;;;;;;6123986;23;20035;-70
2024/02/07 07:24:21;;;;;;;2.85;1.42;;;;;;;;;;6151044;23;20013;-71
2024/02/07 07:26:46;;;;;;;3.47;1.98;;;;;;;;;;6123817;23;20006;-70
2024/02/07 07:29:12;;;;;;;4.15;1.90;;;;;;;;;;6124437;23;20009;-71
2024/02/07 07:31:37;;;;;;;3.20;1.67;;;;;;;;;;6124255;23;20009;-70
2024/02/07 07:34:03;;;;;;;3.17;1.63;;;;;;;;;;6123787;23;20096;-72
2024/02/07 07:36:29;;;;;;;5.95;2.17;;;;;;;;;;6150466;23;20008;-71
2024/02/07 07:38:54;;;;;;;9.10;2.05;;;;;;;;;;6124145;23;20411;-70
2024/02/07 07:41:20;;;;;;;5.63;1.33;;;;;;;;;;6123918;23;20037;-70
2024/02/07 07:43:49;;;;;;;4.00;1.55;;;;;;;;;;6149693;23;20013;-71
2024/02/07 07:46:14;;;;;;;1.90;1.60;;;;;;;;;;6150228;23;20410;-70
2024/02/07 07:48:40;;;;;;;3.53;1.65;;;;;;;;;;6150120;23;20013;-73
2024/02/07 07:51:06;;;;;;;6.57;2.22;;;;;;;;;;6124209;23;20005;-71
2024/02/07 07:53:32;;;;;;;3.88;1.77;;;;;;;;;;6125290;23;20010;-69
2024/02/07 07:55:57;;;;;;;6.32;2.28;;;;;;;;;;6150463;23;20330;-71
2024/02/07 07:58:23;;;;;;;3.00;1.88;;;;;;;;;;6122502;23;20002;-72
2024/02/07 08:00:49;;;;;;;3.90;1.50;;;;;;;;;;6122765;23;20014;-71
2024/02/07 08:03:18;;;;;;;7.15;2.00;;;;;;;;;;6146784;23;20016;-70
2024/02/07 08:05:44;;;;;;;2.70;1.35;;;;;;;;;;6149280;23;20489;-71
2024/02/07 08:08:09;;;;;;;4.63;1.85;;;;;;;;;;6123587;23;20025;-71
2024/02/07 08:10:36;;;;;;;3.25;1.40;;;;;;;;;;6146495;23;20013;-71
2024/02/07 08:13:02;;;;;;;1.48;1.33;;;;;;;;;;6122567;23;20002;-73
2024/02/07 08:15:28;;;;;;;4.95;1.52;;;;;;;;;;6146072;23;20001;-71
2024/02/07 08:17:53;;;;;;;5.47;1.42;;;;;;;;;;6120604;23;20010;-70
2024/02/07 08:20:22;;;;;;;4.28;1.48;;;;;;;;;;6121576;23;20010;-70
2024/02/07 08:22:48;;;;;;;2.28;1.65;;;;;;;;;;6149568;23;20010;-71
2024/02/07 08:25:14;;;;;;;9.00;2.80;;;;;;;;;;6147582;23;20080;-72
2024/02/07 08:27:40;;;;;;;4.00;1.45;;;;;;;;;;6124251;23;20431;-71
2024/02/07 08:30:06;;;;;;;6.85;1.65;;;;;;;;;;6122379;23;20013;-72
2024/02/07 08:32:32;;;;;;;3.13;1.48;;;;;;;;;;6122742;23;20292;-72
2024/02/07 08:34:58;;;;;;;4.22;1.50;;;;;;;;;;6147684;23;20399;-72
2024/02/07 08:37:26;;;;;;;4.85;1.85;;;;;;;;;;6147769;23;20096;-72
2024/02/07 08:39:52;;;;;;;3.65;1.70;;;;;;;;;;6123617;23;20315;-70
2024/02/07 08:42:18;;;;;;;11.57;1.80;;;;;;;;;;6122400;23;20321;-71
2024/02/07 08:44:45;;;;;;;13.00;2.03;;;;;;;;;;6148854;23;20005;-71
2024/02/07 08:47:11;;;;;;;3.50;1.40;;;;;;;;;;6145203;23;20002;-72
2024/02/07 08:49:36;;;;;;;8.32;1.70;;;;;;;;;;6124375;23;20024;-71
2024/02/07 08:52:02;;;;;;;7.00;1.83;;;;;;;;;;6123053;23;20001;-71
2024/02/07 08:54:27;;;;;;;5.35;1.65;;;;;;;;;;6123637;23;20084;-72
2024/02/07 08:56:53;;;;;;;9.25;1.45;;;;;;;;;;6149841;23;20031;-72
2024/02/07 08:59:20;;;;;;;2.40;1.45;;;;;;;;;;6123541;23;20084;-71
2024/02/07 09:01:45;;;;;;;2.13;1.50;;;;;;;;;;6142391;23;20009;-71
2024/02/07 09:04:11;;;;;;;3.45;1.67;;;;;;;;;;6121069;23;20390;-72
2024/02/07 09:06:36;;;;;;;6.78;3.05;;;;;;;;;;6117295;23;20018;-72
2024/02/07 09:09:02;;;;;;;4.93;1.42;;;;;;;;;;6120595;23;20436;-71
2024/02/07 09:11:28;;;;;;;1.25;1.15;;;;;;;;;;6119235;23;20363;-71
2024/02/07 09:13:54;;;;;;;6.13;1.90;;;;;;;;;;6118810;23;20417;-72
2024/02/07 09:16:20;;;;;;;5.75;1.75;;;;;;;;;;6092717;23;20355;-72
2024/02/07 09:18:45;;;;;;;3.17;1.55;;;;;;;;;;6117565;23;20375;-71
2024/02/07 09:21:11;;;;;;;4.55;1.40;;;;;;;;;;6118555;23;20357;-70
2024/02/07 09:23:36;;;;;;;3.53;1.38;;;;;;;;;;6119901;23;20006;-71
2024/02/07 09:26:04;;;;;;;2.70;1.85;;;;;;;;;;6119178;23;20017;-70
2024/02/07 09:28:30;;;;;;;2.42;1.55;;;;;;;;;;6121448;23;20018;-71
2024/02/07 09:30:55;;;;;;;4.22;1.70;;;;;;;;;;6118201;23;20072;-72
2024/02/07 09:33:21;;;;;;;6.13;2.17;;;;;;;;;;6118125;23;20358;-70
2024/02/07 09:35:47;;;;;;;2.65;2.08;;;;;;;;;;6118157;23;20002;-70
2024/02/07 09:38:12;;;;;;;7.70;1.58;;;;;;;;;;6116030;23;20109;-70
2024/02/07 09:40:38;;;;;;;4.70;1.70;;;;;;;;;;6119061;23;20030;-71
2024/02/07 09:43:04;;;;;;;5.05;1.60;;;;;;;;;;6121034;23;20387;-71
2024/02/07 09:45:34;;;;;;;4.22;1.63;;;;;;;;;;6118858;23;20012;-69
2024/02/07 09:48:18;;;;;;;3.78;1.23;;;;;;;;;;6116729;23;20002;-70
2024/02/07 09:50:45;;;;;;;4.75;1.80;;;;;;;;;;6116585;23;20005;-71
2024/02/07 09:53:12;;;;;;;1.92;1.30;;;;;;;;;;6118020;23;20010;-71
2024/02/07 09:55:38;;;;;;;5.13;1.52;;;;;;;;;;6117684;23;20049;-71
2024/02/07 09:58:33;;;;;;;3.97;1.48;;;;;;;;;;6118585;23;20065;-70
2024/02/07 10:00:59;;;;;;;4.55;1.83;;;;;;;;;;6107452;23;20390;-69
2024/02/07 10:03:28;;;;;;;3.15;1.20;;;;;;;;;;6117701;23;20014;-70
2024/02/07 10:05:58;;;;;;;4.20;1.75;;;;;;;;;;6123572;23;20024;-71
2024/02/07 10:08:26;;;;;;;5.07;1.77;;;;;;;;;;6146865;23;20068;-71
2024/02/07 10:10:52;;;;;;;3.80;1.88;;;;;;;;;;6149443;23;20407;-70
2024/02/07 10:13:18;;;;;;;4.35;1.80;;;;;;;;;;6097419;23;20040;-69
2024/02/07 10:15:44;;;;;;;4.45;1.25;;;;;;;;;;6148862;23;20419;-70
2024/02/07 10:18:12;;;;;;;2.33;1.42;;;;;;;;;;6117267;23;20009;-70
2024/02/07 10:20:37;;;;;;;4.53;1.70;;;;;;;;;;6123377;23;20052;-69
2024/02/07 10:23:09;;;;;;;4.15;1.65;;;;;;;;;;6148503;23;20298;-71
2024/02/07 10:25:35;;;;;;;2.15;1.58;;;;;;;;;;6149854;23;20064;-70
2024/02/07 10:28:05;;;;;;;2.60;1.13;;;;;;;;;;6124152;23;20062;-70
2024/02/07 10:30:31;;;;;;;6.32;1.77;;;;;;;;;;6100929;23;20009;-70
2024/02/07 10:32:57;;;;;;;2.78;1.27;;;;;;;;;;6124757;23;20160;-71
2024/02/07 10:35:23;;;;;;;2.50;1.23;;;;;;;;;;6125275;23;20001;-70
2024/02/07 10:37:52;;;;;;;3.03;1.27;;;;;;;;;;6124756;23;20597;-70
2024/02/07 10:40:19;;;;;;;3.88;1.85;;;;;;;;;;6100573;23;20087;-71
2024/02/07 10:42:59;;;;;;;2.47;1.33;;;;;;;;;;6148827;23;20008;-69
2024/02/07 10:45:24;;;;;;;2.40;1.17;;;;;;;;;;6124733;23;20088;-71
2024/02/07 10:47:53;;;;;;;3.15;1.33;;;;;;;;;;6149187;23;20005;-72
2024/02/07 10:50:21;;;;;;;4.07;1.35;;;;;;;;;;6121816;23;20009;-73
2024/02/07 10:52:49;;;;;;;2.58;1.30;;;;;;;;;;6144359;23;20082;-72
2024/02/07 10:55:16;;;;;;;2.83;1.02;;;;;;;;;;6094943;23;20017;-72
2024/02/07 10:57:50;;;;;;;2.72;1.13;;;;;;;;;;6149132;23;20010;-71
2024/02/07 11:00:18;;;;;;;3.80;1.17;;;;;;;;;;6096830;23;20028;-70
2024/02/07 11:02:46;;;;;;;1.05;1.05;;;;;;;;;;6123828;23;20006;-71
2024/02/07 11:05:13;;;;;;;1.42;1.08;;;;;;;;;;6124701;23;20006;-71
2024/02/07 11:07:39;;;;;;;2.00;1.10;;;;;;;;;;6128024;23;20032;-72
2024/02/07 11:10:06;;;;;;;3.65;1.33;;;;;;;;;;6122252;23;20019;-70
2024/02/07 11:12:33;;;;;;;1.50;1.00;;;;;;;;;;6122518;23;20016;-71
2024/02/07 11:15:01;;;;;;;1.75;0.90;;;;;;;;;;6147876;23;20075;-72
2024/02/07 11:17:27;;;;;;;2.65;1.08;;;;;;;;;;6124389;23;20020;-71
2024/02/07 11:19:52;;;;;;;2.60;1.05;;;;;;;;;;6122888;23;20009;-71
2024/02/07 11:22:27;;;;;;;1.35;0.98;;;;;;;;;;6122610;23;20037;-69
2024/02/07 11:24:55;;;;;;;1.77;1.10;;;;;;;;;;6122864;23;20104;-71
2024/02/07 11:27:22;;;;;;;1.95;1.27;;;;;;;;;;6123427;23;20096;-70
2024/02/07 11:29:49;;;;;;;2.20;1.00;;;;;;;;;;6122526;23;20017;-71
2024/02/07 11:32:15;;;;;;;2.63;0.98;;;;;;;;;;6149101;23;20006;-71
2024/02/07 11:34:41;;;;;;;1.25;1.08;;;;;;;;;;6148170;23;20068;-74
2024/02/07 11:37:11;;;;;;;2.42;1.08;;;;;;;;;;6121699;23;20116;-70
2024/02/07 11:39:42;;;;;;;4.30;1.40;;;;;;;;;;6121310;23;20006;-72
2024/02/07 11:42:16;;;;;;;1.73;1.08;;;;;;;;;;6123058;23;20055;-70
2024/02/07 11:45:15;;;;;;;2.90;1.42;;;;;;;;;;6120746;23;20020;-71
2024/02/07 11:47:42;;;;;;;3.55;1.10;;;;;;;;;;6148868;23;20009;-72
2024/02/07 11:50:14;;;;;;;2.78;1.08;;;;;;;;;;6147714;23;20040;-71
2024/02/07 11:52:41;;;;;;;2.70;0.80;;;;;;;;;;6146495;23;20017;-70
2024/02/07 11:55:12;;;;;;;2.60;1.00;;;;;;;;;;6121956;23;20481;-72
2024/02/07 11:57:42;;;;;;;4.32;1.08;;;;;;;;;;6147851;23;20501;-71
2024/02/07 12:00:08;;;;;;;4.68;1.40;;;;;;;;;;6147767;23;20029;-71
2024/02/07 12:02:37;;;;;;;2.00;0.90;;;;;;;;;;6146504;23;20033;-70
2024/02/07 12:05:05;;;;;;;1.73;1.00;;;;;;;;;;6121939;23;20009;-72
2024/02/07 12:07:31;;;;;;;0.82;0.82;;;;;;;;;;6149868;23;20037;-74
2024/02/07 12:09:57;;;;;;;3.28;0.98;;;;;;;;;;6150730;23;20012;-70
2024/02/07 12:12:25;;;;;;;4.30;1.50;;;;;;;;;;6123282;23;20291;-71
2024/02/07 12:14:52;;;;;;;0.75;0.73;;;;;;;;;;6150590;23;20320;-72
2024/02/07 12:17:17;;;;;;;2.28;0.90;;;;;;;;;;6151494;23;20064;-72
2024/02/07 12:19:44;;;;;;;2.25;1.63;;;;;;;;;;6150303;23;20017;-72
2024/02/07 12:22:19;;;;;;;2.30;1.02;;;;;;;;;;6150130;23;20002;-71
2024/02/07 12:24:45;;;;;;;3.85;1.17;;;;;;;;;;6121759;23;20161;-71
2024/02/07 12:27:15;;;;;;;1.42;0.93;;;;;;;;;;6124408;23;20005;-70
2024/02/07 12:29:57;;;;;;;5.97;1.90;;;;;;;;;;6125190;23;20435;-70
2024/02/07 12:32:24;;;;;;;2.03;1.02;;;;;;;;;;6124599;23;20017;-71
2024/02/07 12:34:50;;;;;;;1.40;1.02;;;;;;;;;;6151625;23;20009;-72
2024/02/07 12:37:19;;;;;;;2.10;1.00;;;;;;;;;;6149738;23;20005;-71
2024/02/07 12:39:50;;;;;;;1.27;1.17;;;;;;;;;;6123639;23;20009;-71
2024/02/07 12:42:20;;;;;;;4.63;1.40;;;;;;;;;;6123905;23;20442;-71
2024/02/07 12:44:50;;;;;;;3.13;1.83;;;;;;;;;;6123411;23;20430;-72
2024/02/07 12:47:18;;;;;;;2.38;1.55;;;;;;;;;;6124620;23;20005;-70
2024/02/07 12:49:44;;;;;;;1.02;0.80;;;;;;;;;;6124449;23;20013;-70
2024/02/07 12:52:11;;;;;;;2.45;1.13;;;;;;;;;;6123649;23;20005;-70
2024/02/07 12:54:38;;;;;;;5.40;1.15;;;;;;;;;;6149592;23;20326;-70
2024/02/07 12:57:04;;;;;;;6.05;1.50;;;;;;;;;;6150934;23;19997;-70
2024/02/07 12:59:34;;;;;;;2.63;1.20;;;;;;;;;;6149664;23;20009;-71
2024/02/07 13:02:08;;;;;;;3.03;1.10;;;;;;;;;;6150623;23;20016;-69
2024/02/07 13:04:34;;;;;;;5.15;1.73;;;;;;;;;;6123294;23;20394;-71
2024/02/07 13:07:02;;;;;;;3.22;0.85;;;;;;;;;;6125337;23;20028;-72
2024/02/07 13:09:28;;;;;;;1.20;1.05;;;;;;;;;;6126282;23;20075;-71
2024/02/07 13:11:55;;;;;;;3.65;1.20;;;;;;;;;;6125321;23;20387;-71
2024/02/07 13:14:20;;;;;;;4.35;1.27;;;;;;;;;;6123899;23;20013;-72
2024/02/07 13:16:46;;;;;;;2.50;1.60;;;;;;;;;;6123685;23;20085;-71
2024/02/07 13:19:13;;;;;;;3.88;2.25;;;;;;;;;;6124377;23;19997;-70
2024/02/07 13:21:42;;;;;;;2.90;1.25;;;;;;;;;;6125398;23;20509;-71
2024/02/07 13:24:15;;;;;;;3.92;1.38;;;;;;;;;;6151136;23;20013;-71
2024/02/07 13:26:41;;;;;;;4.45;1.58;;;;;;;;;;6125020;23;20037;-72
2024/02/07 13:29:08;;;;;;;3.60;2.28;;;;;;;;;;6151459;23;20010;-71
2024/02/07 13:31:37;;;;;;;3.85;0.90;;;;;;;;;;6100931;23;20442;-69
2024/02/07 13:34:13;;;;;;;4.65;1.15;;;;;;;;;;6151153;23;20012;-72
2024/02/07 13:36:38;;;;;;;1.23;1.05;;;;;;;;;;6151102;23;19997;-71
2024/02/07 13:39:05;;;;;;;1.77;1.25;;;;;;;;;;6124290;23;20342;-70
2024/02/07 13:41:31;;;;;;;2.20;1.67;;;;;;;;;;6124141;23;20096;-70
2024/02/07 13:44:01;;;;;;;1.80;0.85;;;;;;;;;;6125216;23;20005;-71
2024/02/07 13:46:28;;;;;;;4.25;1.40;;;;;;;;;;6124522;23;20351;-71
2024/02/07 13:48:56;;;;;;;2.05;1.15;;;;;;;;;;6124242;23;20013;-70
2024/02/07 13:51:22;;;;;;;3.80;1.80;;;;;;;;;;6125427;23;20009;-71
2024/02/07 13:53:47;;;;;;;2.80;1.27;;;;;;;;;;6151523;23;20337;-71
2024/02/07 13:56:13;;;;;;;11.55;1.80;;;;;;;;;;6151248;23;20378;-70
2024/02/07 13:58:38;;;;;;;2.85;1.45;;;;;;;;;;6124360;23;20085;-71
2024/02/07 14:01:04;;;;;;;4.90;1.23;;;;;;;;;;6150803;23;20028;-70
2024/02/07 14:03:30;;;;;;;2.33;1.05;;;;;;;;;;6151150;23;20207;-72
2024/02/07 14:05:55;;;;;;;0.77;0.70;;;;;;;;;;6124140;23;20095;-72
2024/02/07 14:08:21;;;;;;;2.80;1.10;;;;;;;;;;6149748;23;20009;-70
2024/02/07 14:10:47;;;;;;;2.03;1.25;;;;;;;;;;6123780;23;20032;-70
2024/02/07 14:13:14;;;;;;;2.03;1.08;;;;;;;;;;6124168;23;20020;-70
2024/02/07 14:15:40;;;;;;;2.03;0.82;;;;;;;;;;6125347;23;20430;-70
2024/02/07 14:18:06;;;;;;;5.32;3.00;;;;;;;;;;6149902;23;20023;-72
2024/02/07 14:20:32;;;;;;;6.20;1.60;;;;;;;;;;6150925;23;20025;-70
2024/02/07 14:22:57;;;;;;;3.88;1.67;;;;;;;;;;6125304;23;20017;-71
2024/02/07 14:25:23;;;;;;;3.58;1.27;;;;;;;;;;6150941;23;20134;-72
2024/02/07 14:27:48;;;;;;;3.30;2.58;;;;;;;;;;6150353;23;20008;-71
2024/02/07 14:30:14;;;;;;;2.53;1.83;;;;;;;;;;6121737;23;20032;-71
2024/02/07 14:32:40;;;;;;;8.82;2.35;;;;;;;;;;6123436;23;20010;-71
2024/02/07 14:35:06;;;;;;;3.63;1.48;;;;;;;;;;6149777;23;20415;-72
2024/02/07 14:37:36;;;;;;;3.60;1.65;;;;;;;;;;6124117;23;20005;-70
2024/02/07 14:40:02;;;;;;;3.83;1.90;;;;;;;;;;6122407;23;20408;-72
2024/02/07 14:42:31;;;;;;;1.92;1.35;;;;;;;;;;6151050;23;20108;-71
2024/02/07 14:44:57;;;;;;;3.28;1.48;;;;;;;;;;6123183;23;20021;-70
2024/02/07 14:47:22;;;;;;;2.13;1.20;;;;;;;;;;6150416;23;20342;-70
2024/02/07 14:49:48;;;;;;;1.20;1.10;;;;;;;;;;6122872;23;20005;-71
2024/02/07 14:52:14;;;;;;;4.05;1.17;;;;;;;;;;6123024;23;20009;-71
2024/02/07 14:54:39;;;;;;;3.33;1.42;;;;;;;;;;6148962;23;20013;-70
2024/02/07 14:57:05;;;;;;;1.70;1.10;;;;;;;;;;6149973;23;20068;-69
2024/02/07 14:59:30;;;;;;;3.33;1.73;;;;;;;;;;6122406;23;20112;-72
2024/02/07 15:01:56;;;;;;;2.90;1.37;;;;;;;;;;6123475;23;20020;-71
2024/02/07 15:04:21;;;;;;;1.80;1.27;;;;;;;;;;6123725;23;20319;-69
2024/02/07 15:06:47;;;;;;;3.13;1.70;;;;;;;;;;6149619;23;20449;-69
2024/02/07 15:09:13;;;;;;;0.97;0.97;;;;;;;;;;6124175;23;20005;-71
2024/02/07 15:11:40;;;;;;;3.17;1.67;;;;;;;;;;6149825;23;20518;-70
2024/02/07 15:14:06;;;;;;;36.37;3.80;;;;;;;;;;6150834;23;20028;-70
2024/02/07 15:16:32;;;;;;;2.87;2.03;;;;;;;;;;6125130;23;20005;-71
2024/02/07 15:18:59;;;;;;;2.87;1.30;;;;;;;;;;6151910;23;20005;-70
2024/02/07 15:21:25;;;;;;;2.67;1.23;;;;;;;;;;6150151;23;20064;-69
2024/02/07 15:23:51;;;;;;;8.77;2.87;;;;;;;;;;6124542;23;20305;-70
2024/02/07 15:26:20;;;;;;;3.20;1.47;;;;;;;;;;6150494;23;20008;-70
2024/02/07 15:28:46;;;;;;;1.97;1.40;;;;;;;;;;6124276;23;20016;-71
2024/02/07 15:31:12;;;;;;;3.37;1.27;;;;;;;;;;6123004;23;20044;-72
2024/02/07 15:33:38;;;;;;;1.77;1.33;;;;;;;;;;6150806;23;20084;-71
2024/02/07 15:36:10;;;;;;;2.90;1.23;;;;;;;;;;6123899;23;20092;-69
2024/02/07 15:38:36;;;;;;;3.10;1.55;;;;;;;;;;6150477;23;20036;-72
2024/02/07 15:41:04;;;;;;;4.87;3.47;;;;;;;;;;6149488;23;20502;-71
2024/02/07 15:43:35;;;;;;;1.73;1.37;;;;;;;;;;6150449;23;20033;-71
2024/02/07 15:46:02;;;;;;;9.20;1.50;;;;;;;;;;6150361;23;20013;-73
2024/02/07 15:48:28;;;;;;;8.90;1.57;;;;;;;;;;6150557;23;20006;-70